Terminal Aerodrome Forecast
Issued by NWS Grand Forks, ND

Home | Current Version | Previous Version | Text Only | Print | Product List | Glossary On
Versions: 1 2 3 4 5 6 7 8 9 10 11 12 13 14 15 16 17 18 19 20 21 22 23 24 25 26
000
FTUS43 KFGF 250600 AAA
TAFFAR
TAF AMD
KFAR 250626Z 2506/2606 VRB03KT 1/2SM FG BKN003 OVC015
      TEMPO 2506/2510 VRB03KT 1/4SM FG
     FM251200 33004KT 1SM BR OVC002
     FM251500 34006KT P6SM SCT025
     FM251800 01010KT P6SM SCT060=

USA.gov is the U.S. government's official web portal to all federal, state and local government web resources and services.